Time;durP1;ratioP1;P1;durP2;ratioP2;P2;SDS_P1;SDS_P2;PMS_P1;PMS_P2;Temp;Humidity;BMP_temperature;BMP_pressure;BME280_temperature;BME280_humidity;BME280_pressure;Samples;Min_cycle;Max_cycle;Signal;HPM_P1;HPM_P2
2022/03/13 00:00:12;;;;;;;0.30;0.30;;;4.50;82.60;;;;;;5053553;28;20180;-69
2022/03/13 00:02:45;;;;;;;0.40;0.40;;;4.50;82.50;;;;;;5053668;28;20287;-69
2022/03/13 00:05:14;;;;;;;0.30;0.30;;;4.50;82.60;;;;;;5053591;28;20201;-69
2022/03/13 00:07:44;;;;;;;0.30;0.30;;;4.50;81.90;;;;;;5053743;28;20169;-68
2022/03/13 00:10:10;;;;;;;0.40;0.40;;;4.50;81.90;;;;;;5053384;28;20189;-67
2022/03/13 00:12:36;;;;;;;1.80;1.70;;;4.60;82.00;;;;;;5053543;28;20252;-68
2022/03/13 00:15:12;;;;;;;0.40;0.40;;;4.50;81.60;;;;;;5053248;28;20546;-69
2022/03/13 00:17:37;;;;;;;0.40;0.40;;;4.50;81.40;;;;;;5053550;28;20454;-69
2022/03/13 00:20:07;;;;;;;0.30;0.30;;;4.50;82.00;;;;;;5053204;28;20635;-68
2022/03/13 00:22:34;;;;;;;0.30;0.30;;;4.30;82.30;;;;;;5053128;28;20527;-69
2022/03/13 00:25:02;;;;;;;0.40;0.40;;;4.30;83.40;;;;;;5053269;28;20228;-68
2022/03/13 00:27:31;;;;;;;0.40;0.40;;;4.30;83.60;;;;;;5053445;28;20192;-68
2022/03/13 00:29:57;;;;;;;0.40;0.40;;;4.30;83.40;;;;;;5053357;28;20174;-68
2022/03/13 00:32:23;;;;;;;0.40;0.40;;;4.30;83.00;;;;;;5057141;28;20174;-69
2022/03/13 00:34:48;;;;;;;0.30;0.30;;;4.30;82.80;;;;;;5057396;28;20196;-67
2022/03/13 00:37:14;;;;;;;0.30;0.30;;;4.40;82.90;;;;;;5057225;28;20173;-68
2022/03/13 00:39:40;;;;;;;0.40;0.40;;;4.30;82.80;;;;;;5057310;28;20223;-69
2022/03/13 00:42:07;;;;;;;0.40;0.40;;;4.20;83.10;;;;;;5056945;28;20169;-69
2022/03/13 00:44:33;;;;;;;0.40;0.40;;;4.30;83.20;;;;;;5057011;28;20538;-68
2022/03/13 00:46:58;;;;;;;0.40;0.40;;;4.30;82.80;;;;;;5057156;28;20188;-69
2022/03/13 00:49:24;;;;;;;0.40;0.40;;;4.40;83.20;;;;;;5057314;28;20417;-69
2022/03/13 00:51:50;;;;;;;0.30;0.30;;;4.40;83.00;;;;;;5057019;28;20503;-68
2022/03/13 00:54:15;;;;;;;0.30;0.30;;;4.40;82.90;;;;;;5057058;28;20193;-68
2022/03/13 00:56:41;;;;;;;0.30;0.30;;;4.40;81.70;;;;;;5056953;28;20228;-68
2022/03/13 00:59:07;;;;;;;0.30;0.30;;;4.50;81.70;;;;;;5056911;28;20180;-68
2022/03/13 01:01:32;;;;;;;0.40;0.40;;;4.40;81.10;;;;;;5056758;28;20188;-68
2022/03/13 01:03:58;;;;;;;0.40;0.40;;;4.50;81.20;;;;;;5056750;28;20200;-68
2022/03/13 01:06:24;;;;;;;0.30;0.30;;;4.50;81.20;;;;;;5056728;28;20613;-68
2022/03/13 01:08:51;;;;;;;0.30;0.30;;;4.30;82.10;;;;;;5056857;28;20668;-68
2022/03/13 01:11:19;;;;;;;0.40;0.40;;;4.30;83.10;;;;;;5056494;28;20173;-69
2022/03/13 01:13:46;;;;;;;0.40;0.40;;;4.30;82.90;;;;;;5056556;28;20171;-69
2022/03/13 01:16:23;;;;;;;0.30;0.30;;;4.40;82.60;;;;;;5056532;28;20207;-69
2022/03/13 01:18:58;;;;;;;0.30;0.30;;;4.40;81.60;;;;;;5056539;28;20184;-69
2022/03/13 01:21:27;;;;;;;1.23;1.23;;;4.40;80.80;;;;;;5056472;28;20190;-68
2022/03/13 01:24:02;;;;;;;0.40;0.40;;;4.40;81.20;;;;;;5056470;28;20196;-69
2022/03/13 01:26:34;;;;;;;0.30;0.30;;;4.40;81.50;;;;;;5056556;28;20167;-68
2022/03/13 01:29:02;;;;;;;0.30;0.30;;;4.40;81.80;;;;;;5056508;28;20179;-68
2022/03/13 01:31:33;;;;;;;0.50;0.50;;;4.40;81.50;;;;;;5056106;28;20167;-67
2022/03/13 01:34:00;;;;;;;0.40;0.40;;;4.40;81.50;;;;;;5056547;28;20181;-69
2022/03/13 01:36:26;;;;;;;0.30;0.30;;;4.30;82.10;;;;;;5056189;28;20181;-69
2022/03/13 01:38:55;;;;;;;0.40;0.40;;;4.20;82.30;;;;;;5056232;28;20222;-68
2022/03/13 01:41:23;;;;;;;1.38;1.10;;;4.20;82.30;;;;;;5055964;28;20242;-68
2022/03/13 01:43:48;;;;;;;0.45;0.45;;;4.20;82.00;;;;;;5055344;28;20246;-68
2022/03/13 01:46:15;;;;;;;0.30;0.30;;;4.20;81.70;;;;;;5056136;28;20180;-68
2022/03/13 01:49:02;;;;;;;0.30;0.30;;;4.20;82.00;;;;;;5056113;28;20171;-69
2022/03/13 01:51:28;;;;;;;0.30;0.30;;;4.30;82.30;;;;;;5055879;28;20198;-68
2022/03/13 01:53:56;;;;;;;0.40;0.40;;;4.20;81.90;;;;;;5055894;28;20216;-68
2022/03/13 01:56:22;;;;;;;0.40;0.40;;;4.30;81.70;;;;;;5055785;28;20231;-68
2022/03/13 01:58:51;;;;;;;0.40;0.40;;;4.20;81.80;;;;;;5055913;28;20208;-68
2022/03/13 02:01:18;;;;;;;0.40;0.40;;;4.20;82.50;;;;;;5055452;28;20233;-69
2022/03/13 02:03:44;;;;;;;0.40;0.40;;;4.10;80.30;;;;;;5055616;28;20198;-67
2022/03/13 02:06:10;;;;;;;0.40;0.40;;;4.10;80.70;;;;;;5055478;28;20233;-69
2022/03/13 02:08:37;;;;;;;0.40;0.40;;;4.20;81.20;;;;;;5055721;28;20216;-68
2022/03/13 02:11:04;;;;;;;0.30;0.30;;;4.20;81.10;;;;;;5055459;28;20552;-68
2022/03/13 02:13:31;;;;;;;0.40;0.40;;;4.20;80.80;;;;;;5055634;28;20173;-68
2022/03/13 02:15:57;;;;;;;0.30;0.30;;;4.30;80.20;;;;;;5055345;28;20287;-68
2022/03/13 02:18:23;;;;;;;0.40;0.40;;;4.30;79.60;;;;;;5055635;28;20267;-69
2022/03/13 02:20:48;;;;;;;0.40;0.40;;;4.20;79.00;;;;;;5055155;28;20410;-69
2022/03/13 02:23:28;;;;;;;0.30;0.30;;;4.10;79.50;;;;;;5055537;28;20690;-69
2022/03/13 02:26:00;;;;;;;0.40;0.40;;;4.00;80.50;;;;;;5055147;28;20199;-68
2022/03/13 02:28:30;;;;;;;0.30;0.30;;;4.00;81.00;;;;;;5055481;28;20251;-67
2022/03/13 02:31:17;;;;;;;0.30;0.30;;;4.00;81.20;;;;;;5055289;28;20192;-68
2022/03/13 02:33:43;;;;;;;0.30;0.30;;;3.90;82.30;;;;;;5055229;28;20179;-68
2022/03/13 02:36:32;;;;;;;0.30;0.30;;;3.80;82.70;;;;;;5054948;28;20203;-68
2022/03/13 02:39:03;;;;;;;0.30;0.30;;;3.90;82.70;;;;;;5055059;28;20229;-68
2022/03/13 02:41:29;;;;;;;0.30;0.30;;;3.90;82.30;;;;;;5054974;28;20266;-68
2022/03/13 02:43:56;;;;;;;0.30;0.30;;;3.90;81.00;;;;;;5054980;28;20284;-68
2022/03/13 02:46:42;;;;;;;0.35;0.35;;;4.00;80.00;;;;;;5054912;28;20164;-67
2022/03/13 02:49:08;;;;;;;0.40;0.40;;;4.10;78.90;;;;;;5054852;28;20575;-68
2022/03/13 02:51:34;;;;;;;0.30;0.30;;;4.10;78.70;;;;;;5054666;28;20228;-68
2022/03/13 02:53:59;;;;;;;0.30;0.30;;;4.10;80.20;;;;;;5054492;28;20863;-68
2022/03/13 02:56:25;;;;;;;0.30;0.30;;;4.10;80.20;;;;;;5054749;28;20506;-68
2022/03/13 02:58:51;;;;;;;0.30;0.30;;;4.00;80.10;;;;;;5054785;28;20251;-69
2022/03/13 03:01:19;;;;;;;0.83;0.83;;;4.00;80.20;;;;;;5054407;28;20434;-68
2022/03/13 03:03:45;;;;;;;0.30;0.30;;;4.00;80.00;;;;;;5054668;28;20226;-68
2022/03/13 03:06:12;;;;;;;0.40;0.40;;;4.20;79.40;;;;;;5054393;28;20224;-68
2022/03/13 03:08:38;;;;;;;0.30;0.30;;;4.20;78.70;;;;;;5054529;28;20176;-68
2022/03/13 03:11:04;;;;;;;0.30;0.30;;;4.20;79.40;;;;;;5054205;28;20173;-68
2022/03/13 03:13:30;;;;;;;0.40;0.40;;;4.20;79.40;;;;;;5054461;28;20958;-69
2022/03/13 03:15:55;;;;;;;0.33;0.33;;;4.30;79.40;;;;;;5054422;28;20196;-68
2022/03/13 03:18:21;;;;;;;0.30;0.30;;;4.30;78.50;;;;;;5054255;28;20490;-68
2022/03/13 03:20:47;;;;;;;0.30;0.30;;;4.30;77.90;;;;;;5054099;28;20241;-69
2022/03/13 03:23:13;;;;;;;0.40;0.40;;;4.30;77.30;;;;;;5054201;28;20208;-68
2022/03/13 03:25:39;;;;;;;0.30;0.30;;;4.30;75.80;;;;;;5054044;28;20199;-68
2022/03/13 03:28:05;;;;;;;0.50;0.50;;;4.40;75.20;;;;;;5054232;28;20166;-69
2022/03/13 03:30:31;;;;;;;0.30;0.30;;;4.50;75.20;;;;;;5053957;28;20167;-68
2022/03/13 03:33:00;;;;;;;0.40;0.40;;;4.50;74.90;;;;;;5054430;28;20184;-68
2022/03/13 03:35:26;;;;;;;0.30;0.30;;;4.40;75.70;;;;;;5053880;28;20196;-68
2022/03/13 03:37:54;;;;;;;0.40;0.40;;;4.40;76.90;;;;;;5053999;28;20267;-68
2022/03/13 03:40:28;;;;;;;0.40;0.40;;;4.40;77.10;;;;;;5053746;28;20544;-69
2022/03/13 03:42:56;;;;;;;0.30;0.30;;;4.40;77.10;;;;;;5053978;28;20269;-68
2022/03/13 03:45:22;;;;;;;0.30;0.30;;;4.50;76.80;;;;;;5053940;28;20203;-67
2022/03/13 03:47:48;;;;;;;0.30;0.30;;;4.40;75.20;;;;;;5053696;28;20187;-69
2022/03/13 03:50:14;;;;;;;0.30;0.30;;;4.40;75.40;;;;;;5053602;28;20530;-67
2022/03/13 03:52:40;;;;;;;0.30;0.30;;;4.40;75.70;;;;;;5053888;28;20205;-67
2022/03/13 03:55:06;;;;;;;0.30;0.30;;;4.40;76.10;;;;;;5053765;28;20220;-69
2022/03/13 03:57:32;;;;;;;0.32;0.32;;;4.40;74.90;;;;;;5053780;28;20536;-69
2022/03/13 03:59:58;;;;;;;0.30;0.30;;;4.50;74.40;;;;;;5053813;28;20178;-68
2022/03/13 04:02:23;;;;;;;0.30;0.30;;;4.50;74.00;;;;;;5053369;28;20734;-69
2022/03/13 04:04:49;;;;;;;0.30;0.30;;;4.50;74.30;;;;;;5051751;28;20190;-68
2022/03/13 04:07:15;;;;;;;0.30;0.30;;;4.60;74.20;;;;;;5053410;28;20183;-68
2022/03/13 04:09:41;;;;;;;0.30;0.30;;;4.50;73.40;;;;;;5053576;28;20168;-68
2022/03/13 04:12:08;;;;;;;0.30;0.30;;;4.60;73.50;;;;;;5053422;28;20196;-68
2022/03/13 04:14:37;;;;;;;0.30;0.30;;;4.60;73.70;;;;;;5053456;28;20212;-68
2022/03/13 04:17:07;;;;;;;0.38;0.38;;;4.60;73.40;;;;;;5053339;28;20173;-68
2022/03/13 04:19:32;;;;;;;0.40;0.40;;;4.60;73.40;;;;;;5053222;28;20185;-69
2022/03/13 04:21:58;;;;;;;0.30;0.30;;;4.60;73.50;;;;;;5053165;28;20179;-68
2022/03/13 04:24:24;;;;;;;0.40;0.40;;;4.60;73.70;;;;;;5053309;28;20573;-68
2022/03/13 04:26:50;;;;;;;0.30;0.30;;;4.50;73.60;;;;;;5053212;28;20551;-69
2022/03/13 04:29:17;;;;;;;0.30;0.30;;;4.50;74.30;;;;;;5053260;28;20700;-69
2022/03/13 04:31:43;;;;;;;0.30;0.30;;;4.50;74.30;;;;;;5052978;28;20168;-68
2022/03/13 04:34:10;;;;;;;0.30;0.30;;;4.40;74.00;;;;;;5052979;28;20196;-68
2022/03/13 04:36:37;;;;;;;0.30;0.30;;;4.30;74.20;;;;;;5053249;28;20172;-68
2022/03/13 04:39:07;;;;;;;0.38;0.38;;;4.40;74.60;;;;;;5053307;28;20184;-68
2022/03/13 04:41:33;;;;;;;0.40;0.40;;;4.40;74.70;;;;;;5052933;28;20674;-69
2022/03/13 04:43:59;;;;;;;0.40;0.40;;;4.40;74.70;;;;;;5052930;28;20203;-68
2022/03/13 04:46:25;;;;;;;0.30;0.30;;;4.30;74.40;;;;;;5053140;28;20422;-67
2022/03/13 04:48:53;;;;;;;0.30;0.30;;;4.30;74.30;;;;;;5053161;28;20181;-68
2022/03/13 04:51:19;;;;;;;0.30;0.30;;;4.20;74.30;;;;;;5053066;28;20259;-68
2022/03/13 04:53:45;;;;;;;0.30;0.30;;;4.30;73.70;;;;;;5053139;28;20176;-68
2022/03/13 04:56:12;;;;;;;0.30;0.30;;;4.20;72.80;;;;;;5052910;28;20282;-68
2022/03/13 04:58:38;;;;;;;0.32;0.32;;;4.20;73.40;;;;;;5052979;28;20544;-69
2022/03/13 05:01:04;;;;;;;0.40;0.40;;;4.10;73.50;;;;;;5052883;28;20198;-68
2022/03/13 05:03:33;;;;;;;0.38;0.38;;;4.10;74.20;;;;;;5053040;28;20473;-68
2022/03/13 05:05:59;;;;;;;0.30;0.30;;;4.10;73.80;;;;;;5052814;28;20722;-68
2022/03/13 05:08:26;;;;;;;0.30;0.30;;;4.10;73.00;;;;;;5052967;28;20238;-68
2022/03/13 05:10:52;;;;;;;0.93;0.93;;;4.20;72.00;;;;;;5052707;28;20188;-68
2022/03/13 05:13:19;;;;;;;0.30;0.30;;;4.30;71.00;;;;;;5053097;28;20171;-67
2022/03/13 05:15:46;;;;;;;0.75;0.75;;;4.40;70.60;;;;;;5052743;28;20954;-68
2022/03/13 05:18:13;;;;;;;0.50;0.50;;;4.40;70.90;;;;;;5056642;28;20226;-68
2022/03/13 05:20:39;;;;;;;0.30;0.30;;;4.40;72.10;;;;;;5056377;28;20207;-68
2022/03/13 05:23:07;;;;;;;0.40;0.40;;;4.40;72.70;;;;;;5056558;28;20196;-68
2022/03/13 05:25:37;;;;;;;0.30;0.30;;;4.30;72.00;;;;;;5056398;28;20185;-68
2022/03/13 05:28:04;;;;;;;0.30;0.30;;;4.30;71.60;;;;;;5056473;28;20694;-67
2022/03/13 05:30:30;;;;;;;0.30;0.30;;;4.30;69.80;;;;;;5056214;28;20318;-67
2022/03/13 05:32:56;;;;;;;0.40;0.40;;;4.30;69.60;;;;;;5056456;28;20228;-69
2022/03/13 05:35:23;;;;;;;0.40;0.40;;;4.30;69.20;;;;;;5056234;28;20213;-68
2022/03/13 05:37:49;;;;;;;0.40;0.40;;;4.40;68.60;;;;;;5056237;28;20171;-68
2022/03/13 05:40:16;;;;;;;0.77;0.77;;;4.40;69.00;;;;;;5055984;28;20181;-68
2022/03/13 05:42:47;;;;;;;0.32;0.32;;;4.50;68.80;;;;;;5056283;28;20442;-68
2022/03/13 05:45:22;;;;;;;0.30;0.30;;;4.40;69.80;;;;;;5056092;28;20188;-68
2022/03/13 05:47:55;;;;;;;0.40;0.40;;;4.40;70.00;;;;;;5056295;28;20173;-68
2022/03/13 05:50:23;;;;;;;0.35;0.35;;;4.40;70.50;;;;;;5056079;28;20169;-68
2022/03/13 05:52:49;;;;;;;0.30;0.30;;;4.50;70.50;;;;;;5056007;28;20200;-69
2022/03/13 05:55:16;;;;;;;0.33;0.33;;;4.40;70.20;;;;;;5055823;28;20285;-69
2022/03/13 05:57:42;;;;;;;0.30;0.30;;;4.40;70.60;;;;;;5055935;28;20236;-68
2022/03/13 06:00:11;;;;;;;0.30;0.30;;;4.40;71.10;;;;;;5055695;28;20620;-69
2022/03/13 06:02:38;;;;;;;0.40;0.40;;;4.50;71.10;;;;;;5055878;28;20200;-68
2022/03/13 06:05:05;;;;;;;0.40;0.40;;;4.60;70.90;;;;;;5055771;28;20184;-68
2022/03/13 06:07:32;;;;;;;0.30;0.30;;;4.70;70.90;;;;;;5054847;28;20204;-68
2022/03/13 06:09:57;;;;;;;0.38;0.38;;;4.70;70.90;;;;;;5053174;28;20169;-67
2022/03/13 06:12:23;;;;;;;0.30;0.30;;;4.70;69.80;;;;;;5054646;28;20700;-68
2022/03/13 06:14:48;;;;;;;0.30;0.30;;;4.80;68.00;;;;;;5056142;28;20239;-67
2022/03/13 06:17:14;;;;;;;0.30;0.30;;;4.90;66.90;;;;;;5055533;28;20715;-68
2022/03/13 06:19:42;;;;;;;0.30;0.30;;;4.90;66.70;;;;;;5052528;28;20257;-68
2022/03/13 06:22:09;;;;;;;0.30;0.30;;;4.80;69.00;;;;;;5054590;28;20166;-69
2022/03/13 06:24:36;;;;;;;0.40;0.40;;;4.90;70.80;;;;;;5053302;28;20699;-69
2022/03/13 06:27:01;;;;;;;0.40;0.40;;;5.00;71.70;;;;;;5054476;28;20166;-67
2022/03/13 06:29:28;;;;;;;0.30;0.30;;;5.00;71.80;;;;;;5052979;28;20231;-68
2022/03/13 06:31:54;;;;;;;0.30;0.30;;;5.10;71.50;;;;;;5055022;28;20162;-67
2022/03/13 06:34:19;;;;;;;0.30;0.30;;;5.20;71.20;;;;;;5055110;28;20197;-69
2022/03/13 06:36:46;;;;;;;0.77;0.77;;;5.20;70.90;;;;;;5055121;28;20178;-67
2022/03/13 06:39:12;;;;;;;0.30;0.30;;;5.20;71.00;;;;;;5055156;28;20167;-68
2022/03/13 06:41:38;;;;;;;0.40;0.40;;;5.30;70.80;;;;;;5055015;28;20538;-68
2022/03/13 06:44:05;;;;;;;0.40;0.40;;;5.40;71.10;;;;;;5055067;28;20242;-68
2022/03/13 06:46:32;;;;;;;0.30;0.30;;;5.30;69.50;;;;;;5054892;28;20176;-68
2022/03/13 06:48:59;;;;;;;0.30;0.30;;;5.60;71.30;;;;;;5054909;28;20171;-69
2022/03/13 06:51:24;;;;;;;0.30;0.30;;;5.80;69.70;;;;;;5054704;28;20232;-69
2022/03/13 06:53:50;;;;;;;0.33;0.33;;;5.90;67.30;;;;;;5055055;28;20632;-68
2022/03/13 06:56:16;;;;;;;0.30;0.30;;;6.10;67.50;;;;;;5054725;28;20232;-69
2022/03/13 06:58:42;;;;;;;0.30;0.30;;;6.00;68.50;;;;;;5054823;28;20170;-69
2022/03/13 07:01:07;;;;;;;0.40;0.40;;;6.10;70.40;;;;;;5054359;28;20186;-68
2022/03/13 07:03:34;;;;;;;0.63;0.63;;;6.30;70.10;;;;;;5054548;28;20452;-68
2022/03/13 07:06:02;;;;;;;0.30;0.30;;;6.40;69.30;;;;;;5054514;28;20564;-68
2022/03/13 07:08:28;;;;;;;0.40;0.40;;;7.00;67.50;;;;;;5054663;28;20594;-69
2022/03/13 07:10:54;;;;;;;0.30;0.30;;;8.20;62.20;;;;;;5054368;28;20177;-70
2022/03/13 07:13:20;;;;;;;0.30;0.30;;;9.60;58.20;;;;;;5052553;28;20182;-68
2022/03/13 07:15:46;;;;;;;0.40;0.40;;;10.90;53.30;;;;;;5054186;28;20833;-68
2022/03/13 07:18:11;;;;;;;0.30;0.30;;;12.00;50.50;;;;;;5054010;28;20231;-70
2022/03/13 07:20:37;;;;;;;0.30;0.30;;;12.90;48.10;;;;;;5052518;28;20405;-68
2022/03/13 07:23:02;;;;;;;0.30;0.30;;;14.10;46.30;;;;;;5054355;28;20190;-68
2022/03/13 07:25:28;;;;;;;0.40;0.40;;;15.10;43.50;;;;;;5054169;28;20595;-70
2022/03/13 07:27:54;;;;;;;0.30;0.30;;;15.80;41.70;;;;;;5054115;28;20261;-70
2022/03/13 07:30:19;;;;;;;0.50;0.50;;;16.50;40.30;;;;;;5053940;28;20257;-69
2022/03/13 07:32:45;;;;;;;0.30;0.30;;;16.70;39.50;;;;;;5054054;28;20166;-70
2022/03/13 07:35:12;;;;;;;0.30;0.30;;;16.50;39.50;;;;;;5053978;28;20193;-68
2022/03/13 07:37:38;;;;;;;0.40;0.40;;;16.50;39.40;;;;;;5054128;28;20171;-68
2022/03/13 07:40:05;;;;;;;0.30;0.30;;;16.50;39.30;;;;;;5053051;28;20890;-71
2022/03/13 07:42:30;;;;;;;0.30;0.30;;;15.90;39.90;;;;;;5053926;28;20436;-71
2022/03/13 07:44:56;;;;;;;0.30;0.30;;;15.30;40.40;;;;;;5053710;28;20459;-69
2022/03/13 07:47:22;;;;;;;0.60;0.60;;;15.30;41.20;;;;;;5053792;28;20169;-71
2022/03/13 07:49:48;;;;;;;0.47;0.47;;;15.00;42.60;;;;;;5054132;28;20396;-69
2022/03/13 07:52:14;;;;;;;1.13;1.13;;;14.40;43.30;;;;;;5053659;28;20178;-69
2022/03/13 07:54:39;;;;;;;0.40;0.40;;;13.90;43.50;;;;;;5053668;28;20431;-71
2022/03/13 07:57:05;;;;;;;0.30;0.30;;;13.80;43.90;;;;;;5053787;28;20527;-72
2022/03/13 07:59:31;;;;;;;0.30;0.30;;;13.70;45.00;;;;;;5051826;28;20639;-69
2022/03/13 08:01:56;;;;;;;2.97;2.87;;;14.00;45.40;;;;;;5053411;28;20221;-69
2022/03/13 08:04:24;;;;;;;0.40;0.40;;;14.00;43.60;;;;;;5053614;28;20202;-69
2022/03/13 08:06:50;;;;;;;0.70;0.57;;;14.50;43.20;;;;;;5054146;28;20176;-70
2022/03/13 08:09:16;;;;;;;2.90;2.73;;;16.30;41.20;;;;;;5054044;28;20412;-69
2022/03/13 08:11:42;;;;;;;0.30;0.30;;;18.30;38.70;;;;;;5050644;28;20400;-68
2022/03/13 08:14:07;;;;;;;0.40;0.40;;;19.70;36.60;;;;;;5052465;28;20257;-69
2022/03/13 08:16:35;;;;;;;0.37;0.37;;;20.60;35.10;;;;;;5052525;28;20434;-69
2022/03/13 08:19:01;;;;;;;0.40;0.40;;;21.70;32.80;;;;;;5052347;28;20175;-69
2022/03/13 08:21:27;;;;;;;1.03;1.03;;;22.30;31.60;;;;;;5053246;28;20405;-70
2022/03/13 08:23:52;;;;;;;0.50;0.50;;;22.30;30.40;;;;;;5053349;28;20495;-70
2022/03/13 08:26:18;;;;;;;0.40;0.40;;;22.50;30.60;;;;;;5053240;28;20166;-70
2022/03/13 08:28:44;;;;;;;0.50;0.50;;;22.40;31.40;;;;;;5053245;28;20406;-70
2022/03/13 08:31:11;;;;;;;0.97;0.97;;;22.90;31.80;;;;;;5053161;28;20458;-69
2022/03/13 08:33:37;;;;;;;0.87;0.87;;;23.40;31.80;;;;;;5052054;28;20178;-70
2022/03/13 08:36:04;;;;;;;2.00;1.87;;;23.90;30.10;;;;;;5053289;28;20441;-70
2022/03/13 08:38:30;;;;;;;0.40;0.40;;;24.80;29.50;;;;;;5053399;28;20166;-69
2022/03/13 08:40:56;;;;;;;0.83;0.83;;;25.20;28.70;;;;;;5053064;28;20769;-70
2022/03/13 08:43:22;;;;;;;1.37;1.27;;;25.50;28.90;;;;;;5052998;28;20444;-69
2022/03/13 08:45:48;;;;;;;0.40;0.40;;;25.90;27.70;;;;;;5053070;28;20202;-69
2022/03/13 08:48:14;;;;;;;0.70;0.70;;;26.20;27.20;;;;;;5053139;28;20492;-69
2022/03/13 08:50:40;;;;;;;0.40;0.40;;;26.50;26.40;;;;;;5050440;28;20513;-69
2022/03/13 08:53:06;;;;;;;0.40;0.40;;;26.70;26.30;;;;;;5054991;28;20700;-70
2022/03/13 08:55:32;;;;;;;1.27;1.27;;;26.80;25.80;;;;;;5055612;28;20426;-70
2022/03/13 08:57:58;;;;;;;0.93;0.93;;;26.70;26.00;;;;;;5055127;28;20815;-71
2022/03/13 09:00:24;;;;;;;1.27;1.27;;;26.80;26.10;;;;;;5056690;28;20324;-69
2022/03/13 09:02:50;;;;;;;1.23;1.23;;;27.30;25.70;;;;;;5057377;28;20505;-70
2022/03/13 09:05:16;;;;;;;2.87;2.67;;;28.30;25.60;;;;;;5054941;28;20420;-70
2022/03/13 09:07:42;;;;;;;0.47;0.47;;;28.80;25.00;;;;;;5057434;28;20382;-70
2022/03/13 09:10:08;;;;;;;0.50;0.50;;;28.40;24.40;;;;;;5057028;28;20375;-70
2022/03/13 09:12:35;;;;;;;1.50;1.40;;;27.90;24.60;;;;;;5056772;28;20170;-70
2022/03/13 09:15:02;;;;;;;1.63;1.53;;;27.70;24.80;;;;;;5056923;28;20420;-70
2022/03/13 09:17:28;;;;;;;0.53;0.43;;;28.30;24.60;;;;;;5057027;28;20400;-70
2022/03/13 09:19:56;;;;;;;0.60;0.60;;;28.10;23.90;;;;;;5056378;28;20404;-70
2022/03/13 09:22:22;;;;;;;1.23;1.23;;;28.40;24.60;;;;;;5057115;28;20170;-69
2022/03/13 09:24:49;;;;;;;3.13;1.53;;;28.80;23.80;;;;;;5056627;28;20399;-70
2022/03/13 09:27:16;;;;;;;0.40;0.40;;;29.40;23.70;;;;;;5055389;28;20910;-71
2022/03/13 09:29:42;;;;;;;0.30;0.30;;;29.70;22.80;;;;;;5056700;28;20470;-70
2022/03/13 09:32:07;;;;;;;1.27;1.27;;;29.40;22.90;;;;;;5055681;28;20379;-69
2022/03/13 09:34:34;;;;;;;0.30;0.30;;;28.10;23.50;;;;;;5054737;28;20193;-70
2022/03/13 09:37:00;;;;;;;2.40;2.30;;;28.50;23.40;;;;;;5056116;28;20642;-70
2022/03/13 09:39:25;;;;;;;0.30;0.30;;;28.90;23.40;;;;;;5054680;28;20386;-69
2022/03/13 09:41:52;;;;;;;0.30;0.30;;;29.40;22.90;;;;;;5055725;28;20264;-70
2022/03/13 09:44:19;;;;;;;0.40;0.40;;;30.10;22.40;;;;;;5056269;28;20209;-69
2022/03/13 09:46:44;;;;;;;3.00;2.20;;;30.40;22.20;;;;;;5056541;28;20392;-69
2022/03/13 09:49:10;;;;;;;1.50;1.40;;;29.20;22.10;;;;;;5056128;28;20831;-69
2022/03/13 09:51:36;;;;;;;0.30;0.30;;;26.90;23.40;;;;;;5055778;28;20288;-70
2022/03/13 09:54:02;;;;;;;0.50;0.50;;;24.20;24.90;;;;;;5055855;28;20383;-69
2022/03/13 09:56:29;;;;;;;2.17;2.03;;;24.20;25.90;;;;;;5054147;28;20170;-70
2022/03/13 09:58:54;;;;;;;0.43;0.43;;;25.70;24.90;;;;;;5055939;28;20405;-69
2022/03/13 10:01:20;;;;;;;0.60;0.50;;;26.80;24.10;;;;;;5055458;28;20451;-69
2022/03/13 10:03:46;;;;;;;0.93;0.93;;;27.80;23.50;;;;;;5054692;28;20298;-70
2022/03/13 10:06:12;;;;;;;0.70;0.70;;;28.60;23.40;;;;;;5055591;28;20185;-70
2022/03/13 10:08:38;;;;;;;0.50;0.50;;;28.60;23.00;;;;;;5055781;28;20168;-69
2022/03/13 10:11:04;;;;;;;0.90;0.90;;;28.90;22.60;;;;;;5053732;28;20437;-69
2022/03/13 10:13:39;;;;;;;2.00;1.63;;;28.90;22.40;;;;;;5055749;28;20492;-70
2022/03/13 10:16:07;;;;;;;1.17;1.17;;;29.20;22.10;;;;;;5055853;28;20407;-70
2022/03/13 10:18:34;;;;;;;1.03;1.03;;;29.10;22.50;;;;;;5056110;28;20374;-70
2022/03/13 10:21:08;;;;;;;0.53;0.53;;;29.20;22.10;;;;;;5055425;28;20416;-69
2022/03/13 10:23:34;;;;;;;3.80;1.07;;;28.90;22.00;;;;;;5055472;28;20424;-70
2022/03/13 10:26:00;;;;;;;0.80;0.80;;;28.50;22.30;;;;;;5055594;28;20431;-69
2022/03/13 10:28:30;;;;;;;0.50;0.50;;;28.40;22.70;;;;;;5055739;28;20197;-70
2022/03/13 10:30:58;;;;;;;0.30;0.30;;;28.10;22.50;;;;;;5055410;28;20375;-69
2022/03/13 10:33:44;;;;;;;1.60;1.50;;;28.10;22.40;;;;;;5055808;28;20401;-69
2022/03/13 10:36:11;;;;;;;1.83;1.70;;;28.30;22.30;;;;;;5054733;28;20421;-67
2022/03/13 10:38:38;;;;;;;1.17;1.07;;;28.40;22.40;;;;;;5053166;28;20952;-67
2022/03/13 10:41:12;;;;;;;0.40;0.40;;;28.90;23.00;;;;;;5054872;28;20805;-68
2022/03/13 10:43:58;;;;;;;0.73;0.73;;;28.30;22.60;;;;;;5055160;28;20440;-67
2022/03/13 10:46:30;;;;;;;1.60;1.13;;;28.20;22.90;;;;;;5053619;28;20950;-66
2022/03/13 10:48:57;;;;;;;0.40;0.40;;;27.40;23.30;;;;;;5055294;28;20416;-69
2022/03/13 10:51:45;;;;;;;0.90;0.87;;;27.40;22.60;;;;;;5054727;28;20382;-70
2022/03/13 10:54:37;;;;;;;0.40;0.40;;;27.30;23.10;;;;;;5054973;28;22714;-69
2022/03/13 10:57:09;;;;;;;0.97;0.97;;;27.30;23.30;;;;;;5054839;28;20445;-70
2022/03/13 10:59:35;;;;;;;0.50;0.40;;;25.70;24.00;;;;;;5054883;28;20496;-70
2022/03/13 11:02:12;;;;;;;0.40;0.40;;;24.30;25.10;;;;;;5054580;28;20427;-70
2022/03/13 11:04:46;;;;;;;0.60;0.60;;;23.20;25.50;;;;;;5054554;28;20546;-68
2022/03/13 11:07:13;;;;;;;0.93;0.93;;;22.50;25.90;;;;;;5054527;28;20403;-67
2022/03/13 11:09:38;;;;;;;1.17;1.17;;;22.30;26.70;;;;;;5054894;28;20456;-68
2022/03/13 11:12:09;;;;;;;0.30;0.30;;;21.90;26.40;;;;;;5054426;28;20888;-68
2022/03/13 11:14:35;;;;;;;0.90;0.90;;;21.80;27.00;;;;;;5054401;28;20228;-67
2022/03/13 11:17:02;;;;;;;0.30;0.30;;;20.70;28.20;;;;;;5054353;28;20412;-69
2022/03/13 11:19:30;;;;;;;0.30;0.30;;;19.40;28.40;;;;;;5054483;28;20399;-70
2022/03/13 11:21:55;;;;;;;0.30;0.30;;;18.60;29.70;;;;;;5054217;28;20507;-69
2022/03/13 11:24:23;;;;;;;1.03;0.70;;;18.40;29.60;;;;;;5054125;28;20539;-69
2022/03/13 11:26:52;;;;;;;0.30;0.30;;;18.40;29.50;;;;;;5054204;28;20168;-68
2022/03/13 11:29:43;;;;;;;2.00;1.90;;;18.10;30.20;;;;;;5054368;28;20929;-69
2022/03/13 11:32:45;;;;;;;2.60;2.50;;;17.10;31.10;;;;;;5053954;28;20392;-70
2022/03/13 11:35:11;;;;;;;0.30;0.30;;;16.80;31.80;;;;;;5053438;28;20448;-69
2022/03/13 11:37:37;;;;;;;0.30;0.30;;;16.60;31.90;;;;;;5054181;28;20407;-69
2022/03/13 11:40:04;;;;;;;0.30;0.30;;;16.40;32.10;;;;;;5053897;28;20423;-69
2022/03/13 11:42:51;;;;;;;0.30;0.30;;;16.40;33.00;;;;;;5054285;28;20405;-70
2022/03/13 11:45:35;;;;;;;0.60;0.60;;;16.40;32.40;;;;;;5053719;28;20458;-69
2022/03/13 11:48:22;;;;;;;0.30;0.30;;;16.90;32.00;;;;;;5054068;28;20432;-68
2022/03/13 11:50:54;;;;;;;0.40;0.40;;;17.30;31.40;;;;;;5053974;28;20419;-69
2022/03/13 11:53:20;;;;;;;0.60;0.60;;;17.40;30.90;;;;;;5052567;28;20507;-69
2022/03/13 11:56:02;;;;;;;0.50;0.50;;;17.40;30.40;;;;;;5052869;28;20424;-68
2022/03/13 11:58:41;;;;;;;0.40;0.40;;;17.30;30.70;;;;;;5053722;28;20763;-70
2022/03/13 12:01:23;;;;;;;0.50;0.50;;;17.40;30.40;;;;;;5051309;28;20428;-68
2022/03/13 12:04:01;;;;;;;0.30;0.30;;;17.30;30.30;;;;;;5053914;28;20444;-70
2022/03/13 12:06:39;;;;;;;0.60;0.60;;;17.90;30.60;;;;;;5053533;28;20521;-69
2022/03/13 12:09:11;;;;;;;0.30;0.30;;;18.20;30.00;;;;;;5053554;28;20409;-70
2022/03/13 12:11:46;;;;;;;0.93;0.93;;;18.00;30.00;;;;;;5051764;28;20494;-71
2022/03/13 12:14:14;;;;;;;0.40;0.40;;;18.10;30.30;;;;;;5054425;28;20392;-70
2022/03/13 12:16:42;;;;;;;0.30;0.30;;;18.10;29.50;;;;;;5054014;28;20413;-69
2022/03/13 12:19:10;;;;;;;0.30;0.30;;;17.50;29.50;;;;;;5051459;28;20412;-68
2022/03/13 12:21:37;;;;;;;0.87;0.87;;;17.30;30.10;;;;;;5053295;28;20443;-69
2022/03/13 12:24:15;;;;;;;1.23;1.17;;;16.80;30.50;;;;;;5053443;28;20459;-69
2022/03/13 12:26:45;;;;;;;0.30;0.30;;;16.70;31.00;;;;;;5053367;28;20419;-70
2022/03/13 12:29:15;;;;;;;2.13;1.93;;;16.40;31.00;;;;;;5053969;28;20398;-70
2022/03/13 12:31:48;;;;;;;0.40;0.40;;;16.50;31.80;;;;;;5053691;28;20470;-69
2022/03/13 12:34:26;;;;;;;0.37;0.37;;;16.60;32.20;;;;;;5053895;28;20771;-67
2022/03/13 12:37:00;;;;;;;0.57;0.57;;;16.50;31.80;;;;;;5053627;28;20415;-68
2022/03/13 12:39:27;;;;;;;0.60;0.60;;;16.30;31.70;;;;;;5053724;28;20412;-69
2022/03/13 12:42:00;;;;;;;1.90;1.17;;;16.00;32.00;;;;;;5053537;28;20410;-67
2022/03/13 12:44:30;;;;;;;0.30;0.30;;;15.60;33.20;;;;;;5053518;28;20973;-70
2022/03/13 12:46:56;;;;;;;0.30;0.30;;;15.70;33.70;;;;;;5053135;28;20488;-70
2022/03/13 12:49:28;;;;;;;2.50;2.40;;;14.90;34.00;;;;;;5053430;28;20405;-68
2022/03/13 12:51:55;;;;;;;0.30;0.30;;;15.00;37.10;;;;;;5053088;28;20428;-69
2022/03/13 12:54:29;;;;;;;0.40;0.40;;;15.40;35.20;;;;;;5053430;28;20425;-68
2022/03/13 12:56:56;;;;;;;1.80;1.70;;;15.30;33.40;;;;;;5053565;28;20473;-70